sensor_id;sensor_type;location;lat;lon;timestamp;pressure;altitude;pressure_sealevel;temperature;humidity
37778;BME280;23615;51.506;7.678;2023-01-26T00:01:22;100929.41;;;-0.59;96.54
37778;BME280;23615;51.506;7.678;2023-01-26T00:03:49;100927.41;;;-0.46;95.79
37778;BME280;23615;51.506;7.678;2023-01-26T00:06:16;100918.06;;;-0.39;95.58
37778;BME280;23615;51.506;7.678;2023-01-26T00:08:44;100929.22;;;-0.47;95.88
37778;BME280;23615;51.506;7.678;2023-01-26T00:11:14;100928.81;;;-0.42;94.57
37778;BME280;23615;51.506;7.678;2023-01-26T00:13:40;100919.03;;;-0.40;94.38
37778;BME280;23615;51.506;7.678;2023-01-26T00:16:11;100912.06;;;-0.51;94.43
37778;BME280;23615;51.506;7.678;2023-01-26T00:18:37;100914.75;;;-0.62;95.24
37778;BME280;23615;51.506;7.678;2023-01-26T00:21:03;100910.09;;;-0.58;95.98
37778;BME280;23615;51.506;7.678;2023-01-26T00:23:31;100910.94;;;-0.58;95.97
37778;BME280;23615;51.506;7.678;2023-01-26T00:25:57;100905.09;;;-0.41;95.83
37778;BME280;23615;51.506;7.678;2023-01-26T00:28:22;100905.56;;;-0.56;95.37
37778;BME280;23615;51.506;7.678;2023-01-26T00:30:47;100892.91;;;-0.72;95.19
37778;BME280;23615;51.506;7.678;2023-01-26T00:33:13;100899.16;;;-0.94;95.47
37778;BME280;23615;51.506;7.678;2023-01-26T00:35:38;100877.28;;;-0.83;96.83
37778;BME280;23615;51.506;7.678;2023-01-26T00:38:08;100873.75;;;-0.72;97.40
37778;BME280;23615;51.506;7.678;2023-01-26T00:40:33;100865.72;;;-0.81;97.87
37778;BME280;23615;51.506;7.678;2023-01-26T00:42:59;100859.22;;;-0.86;98.26
37778;BME280;23615;51.506;7.678;2023-01-26T00:45:24;100854.56;;;-0.83;98.64
37778;BME280;23615;51.506;7.678;2023-01-26T00:47:49;100853.19;;;-0.77;98.50
37778;BME280;23615;51.506;7.678;2023-01-26T00:50:15;100843.97;;;-0.71;99.19
37778;BME280;23615;51.506;7.678;2023-01-26T00:52:40;100838.78;;;-0.62;99.46
37778;BME280;23615;51.506;7.678;2023-01-26T00:55:05;100840.09;;;-0.47;98.14
37778;BME280;23615;51.506;7.678;2023-01-26T00:57:31;100843.03;;;-0.30;97.16
37778;BME280;23615;51.506;7.678;2023-01-26T00:59:56;100840.25;;;-0.39;96.64
37778;BME280;23615;51.506;7.678;2023-01-26T01:02:22;100833.69;;;-0.54;97.46
37778;BME280;23615;51.506;7.678;2023-01-26T01:04:47;100834.56;;;-0.44;98.29
37778;BME280;23615;51.506;7.678;2023-01-26T01:07:12;100830.00;;;-0.51;98.42
37778;BME280;23615;51.506;7.678;2023-01-26T01:09:37;100829.69;;;-0.58;98.79
37778;BME280;23615;51.506;7.678;2023-01-26T01:12:03;100833.06;;;-0.46;98.93
37778;BME280;23615;51.506;7.678;2023-01-26T01:14:28;100835.97;;;-0.40;98.36
37778;BME280;23615;51.506;7.678;2023-01-26T01:16:54;100829.63;;;-0.47;98.15
37778;BME280;23615;51.506;7.678;2023-01-26T01:19:19;100817.22;;;-0.35;97.75
37778;BME280;23615;51.506;7.678;2023-01-26T01:21:44;100824.91;;;-0.43;97.42
37778;BME280;23615;51.506;7.678;2023-01-26T01:24:10;100822.84;;;-0.49;97.87
37778;BME280;23615;51.506;7.678;2023-01-26T01:26:37;100821.31;;;-0.52;97.98
37778;BME280;23615;51.506;7.678;2023-01-26T01:29:02;100822.00;;;-0.50;98.52
37778;BME280;23615;51.506;7.678;2023-01-26T01:31:28;100828.28;;;-0.31;98.32
37778;BME280;23615;51.506;7.678;2023-01-26T01:33:54;100829.31;;;-0.44;97.85
37778;BME280;23615;51.506;7.678;2023-01-26T01:36:19;100826.84;;;-0.55;97.85
37778;BME280;23615;51.506;7.678;2023-01-26T01:38:45;100818.22;;;-0.17;97.19
37778;BME280;23615;51.506;7.678;2023-01-26T01:41:12;100817.97;;;-0.14;96.65
37778;BME280;23615;51.506;7.678;2023-01-26T01:43:38;100819.00;;;-0.35;97.00
37778;BME280;23615;51.506;7.678;2023-01-26T01:46:14;100808.50;;;-0.45;97.69
37778;BME280;23615;51.506;7.678;2023-01-26T01:48:48;100812.47;;;-0.51;97.85
37778;BME280;23615;51.506;7.678;2023-01-26T01:51:20;100820.44;;;-0.62;98.51
37778;BME280;23615;51.506;7.678;2023-01-26T01:53:51;100812.94;;;-0.46;98.87
37778;BME280;23615;51.506;7.678;2023-01-26T01:56:22;100807.25;;;-0.51;99.12
37778;BME280;23615;51.506;7.678;2023-01-26T01:58:52;100803.69;;;-0.40;99.08
37778;BME280;23615;51.506;7.678;2023-01-26T02:01:19;100800.75;;;-0.56;99.29
37778;BME280;23615;51.506;7.678;2023-01-26T02:03:46;100804.06;;;-0.45;98.99
37778;BME280;23615;51.506;7.678;2023-01-26T02:06:15;100797.63;;;-0.41;98.82
37778;BME280;23615;51.506;7.678;2023-01-26T02:08:45;100792.13;;;-0.38;98.46
37778;BME280;23615;51.506;7.678;2023-01-26T02:11:34;100779.94;;;-0.48;98.93
37778;BME280;23615;51.506;7.678;2023-01-26T02:14:03;100786.69;;;-0.55;99.87
37778;BME280;23615;51.506;7.678;2023-01-26T02:16:30;100775.38;;;-0.56;100.00
37778;BME280;23615;51.506;7.678;2023-01-26T02:18:56;100780.34;;;-0.43;100.00
37778;BME280;23615;51.506;7.678;2023-01-26T02:21:22;100765.09;;;-0.28;100.00
37778;BME280;23615;51.506;7.678;2023-01-26T02:24:09;100754.28;;;-0.45;99.92
37778;BME280;23615;51.506;7.678;2023-01-26T02:26:37;100770.00;;;-0.45;100.00
37778;BME280;23615;51.506;7.678;2023-01-26T02:29:06;100767.69;;;-0.38;100.00
37778;BME280;23615;51.506;7.678;2023-01-26T02:31:32;100769.50;;;-0.39;100.00
37778;BME280;23615;51.506;7.678;2023-01-26T02:33:58;100778.50;;;-0.12;99.71
37778;BME280;23615;51.506;7.678;2023-01-26T02:36:28;100771.84;;;-0.16;98.38
37778;BME280;23615;51.506;7.678;2023-01-26T02:39:03;100764.53;;;-0.32;98.42
37778;BME280;23615;51.506;7.678;2023-01-26T02:41:33;100761.91;;;-0.32;98.97
37778;BME280;23615;51.506;7.678;2023-01-26T02:44:18;100777.19;;;-0.47;99.50
37778;BME280;23615;51.506;7.678;2023-01-26T02:46:43;100768.09;;;-0.33;99.37
37778;BME280;23615;51.506;7.678;2023-01-26T02:49:09;100771.41;;;-0.41;99.32
37778;BME280;23615;51.506;7.678;2023-01-26T02:51:52;100765.75;;;-0.36;100.00
37778;BME280;23615;51.506;7.678;2023-01-26T02:54:18;100768.94;;;-0.32;99.35
37778;BME280;23615;51.506;7.678;2023-01-26T02:57:01;100765.13;;;-0.19;98.90
37778;BME280;23615;51.506;7.678;2023-01-26T02:59:27;100765.75;;;-0.36;99.07
37778;BME280;23615;51.506;7.678;2023-01-26T03:01:54;100770.44;;;-0.40;99.60
37778;BME280;23615;51.506;7.678;2023-01-26T03:04:20;100762.88;;;-0.23;99.93
37778;BME280;23615;51.506;7.678;2023-01-26T03:06:46;100747.28;;;-0.25;99.58
37778;BME280;23615;51.506;7.678;2023-01-26T03:09:11;100756.53;;;-0.21;99.90
37778;BME280;23615;51.506;7.678;2023-01-26T03:11:36;100762.06;;;-0.14;99.99
37778;BME280;23615;51.506;7.678;2023-01-26T03:14:11;100762.63;;;-0.11;98.89
37778;BME280;23615;51.506;7.678;2023-01-26T03:16:37;100761.09;;;-0.23;99.11
37778;BME280;23615;51.506;7.678;2023-01-26T03:19:04;100759.06;;;0.00;98.35
37778;BME280;23615;51.506;7.678;2023-01-26T03:21:48;100751.84;;;0.02;98.03
37778;BME280;23615;51.506;7.678;2023-01-26T03:24:32;100764.81;;;-0.25;98.29
37778;BME280;23615;51.506;7.678;2023-01-26T03:27:16;100758.63;;;-0.15;99.27
37778;BME280;23615;51.506;7.678;2023-01-26T03:29:50;100758.19;;;-0.29;99.25
37778;BME280;23615;51.506;7.678;2023-01-26T03:32:16;100754.63;;;-0.09;99.25
37778;BME280;23615;51.506;7.678;2023-01-26T03:34:41;100746.19;;;-0.22;99.19
37778;BME280;23615;51.506;7.678;2023-01-26T03:37:06;100749.38;;;-0.19;98.97
37778;BME280;23615;51.506;7.678;2023-01-26T03:39:32;100755.75;;;-0.02;98.95
37778;BME280;23615;51.506;7.678;2023-01-26T03:42:16;100757.06;;;-0.27;99.77
37778;BME280;23615;51.506;7.678;2023-01-26T03:44:59;100744.50;;;-0.33;100.00
37778;BME280;23615;51.506;7.678;2023-01-26T03:47:44;100762.31;;;-0.27;100.00
37778;BME280;23615;51.506;7.678;2023-01-26T03:50:28;100756.81;;;-0.24;100.00
37778;BME280;23615;51.506;7.678;2023-01-26T03:53:17;100752.94;;;-0.39;99.86
37778;BME280;23615;51.506;7.678;2023-01-26T03:56:03;100752.13;;;-0.30;100.00
37778;BME280;23615;51.506;7.678;2023-01-26T03:58:43;100754.06;;;-0.03;100.00
37778;BME280;23615;51.506;7.678;2023-01-26T04:01:08;100752.66;;;-0.26;99.79
37778;BME280;23615;51.506;7.678;2023-01-26T04:03:35;100747.28;;;-0.15;100.00
37778;BME280;23615;51.506;7.678;2023-01-26T04:06:18;100759.31;;;-0.13;100.00
37778;BME280;23615;51.506;7.678;2023-01-26T04:09:03;100750.47;;;-0.12;100.00
37778;BME280;23615;51.506;7.678;2023-01-26T04:11:28;100750.22;;;-0.18;100.00
37778;BME280;23615;51.506;7.678;2023-01-26T04:13:53;100755.69;;;-0.41;100.00
37778;BME280;23615;51.506;7.678;2023-01-26T04:16:37;100745.34;;;-0.23;100.00
37778;BME280;23615;51.506;7.678;2023-01-26T04:19:21;100742.75;;;-0.13;100.00
37778;BME280;23615;51.506;7.678;2023-01-26T04:22:05;100758.56;;;-0.44;100.00
37778;BME280;23615;51.506;7.678;2023-01-26T04:24:30;100749.16;;;-0.56;100.00
37778;BME280;23615;51.506;7.678;2023-01-26T04:26:56;100752.06;;;-0.49;100.00
37778;BME280;23615;51.506;7.678;2023-01-26T04:29:21;100757.63;;;-0.33;100.00
37778;BME280;23615;51.506;7.678;2023-01-26T04:31:47;100750.53;;;-0.52;100.00
37778;BME280;23615;51.506;7.678;2023-01-26T04:34:14;100741.34;;;-0.46;100.00
37778;BME280;23615;51.506;7.678;2023-01-26T04:36:40;100744.94;;;-0.38;100.00
37778;BME280;23615;51.506;7.678;2023-01-26T04:39:06;100746.00;;;-0.50;100.00
37778;BME280;23615;51.506;7.678;2023-01-26T04:41:32;100749.84;;;-0.54;100.00
37778;BME280;23615;51.506;7.678;2023-01-26T04:43:58;100743.63;;;-0.53;100.00
37778;BME280;23615;51.506;7.678;2023-01-26T04:46:23;100748.78;;;-0.42;100.00
37778;BME280;23615;51.506;7.678;2023-01-26T04:48:49;100745.59;;;-0.45;100.00
37778;BME280;23615;51.506;7.678;2023-01-26T04:51:16;100745.31;;;-0.52;100.00
37778;BME280;23615;51.506;7.678;2023-01-26T04:53:42;100741.28;;;-0.65;100.00
37778;BME280;23615;51.506;7.678;2023-01-26T04:56:16;100741.75;;;-0.31;100.00
37778;BME280;23615;51.506;7.678;2023-01-26T04:58:43;100742.84;;;-0.34;100.00
37778;BME280;23615;51.506;7.678;2023-01-26T05:01:08;100742.59;;;-0.21;100.00
37778;BME280;23615;51.506;7.678;2023-01-26T05:03:33;100732.41;;;-0.15;100.00
37778;BME280;23615;51.506;7.678;2023-01-26T05:05:59;100739.41;;;-0.34;100.00
37778;BME280;23615;51.506;7.678;2023-01-26T05:08:24;100737.50;;;-0.23;100.00
37778;BME280;23615;51.506;7.678;2023-01-26T05:10:49;100728.09;;;-0.25;100.00
37778;BME280;23615;51.506;7.678;2023-01-26T05:13:16;100729.22;;;-0.28;100.00
37778;BME280;23615;51.506;7.678;2023-01-26T05:15:42;100732.94;;;-0.21;100.00
37778;BME280;23615;51.506;7.678;2023-01-26T05:18:08;100734.44;;;-0.38;100.00
37778;BME280;23615;51.506;7.678;2023-01-26T05:20:34;100736.13;;;-0.36;100.00
37778;BME280;23615;51.506;7.678;2023-01-26T05:22:59;100726.44;;;-0.26;100.00
37778;BME280;23615;51.506;7.678;2023-01-26T05:25:25;100733.88;;;-0.41;100.00
37778;BME280;23615;51.506;7.678;2023-01-26T05:27:50;100733.03;;;-0.51;100.00
37778;BME280;23615;51.506;7.678;2023-01-26T05:30:17;100747.25;;;-0.34;100.00
37778;BME280;23615;51.506;7.678;2023-01-26T05:32:42;100741.34;;;-0.36;100.00
37778;BME280;23615;51.506;7.678;2023-01-26T05:35:08;100747.16;;;-0.23;100.00
37778;BME280;23615;51.506;7.678;2023-01-26T05:37:33;100754.03;;;-0.42;100.00
37778;BME280;23615;51.506;7.678;2023-01-26T05:39:59;100752.34;;;-0.52;100.00
37778;BME280;23615;51.506;7.678;2023-01-26T05:42:25;100760.94;;;-0.31;100.00
37778;BME280;23615;51.506;7.678;2023-01-26T05:44:50;100753.22;;;-0.32;100.00
37778;BME280;23615;51.506;7.678;2023-01-26T05:47:16;100754.56;;;-0.48;100.00
37778;BME280;23615;51.506;7.678;2023-01-26T05:49:41;100746.25;;;-0.62;100.00
37778;BME280;23615;51.506;7.678;2023-01-26T05:52:16;100747.63;;;-0.58;100.00
37778;BME280;23615;51.506;7.678;2023-01-26T05:54:41;100750.00;;;-0.55;100.00
37778;BME280;23615;51.506;7.678;2023-01-26T05:57:07;100755.97;;;-0.34;100.00
37778;BME280;23615;51.506;7.678;2023-01-26T05:59:33;100759.81;;;-0.48;100.00
37778;BME280;23615;51.506;7.678;2023-01-26T06:01:58;100750.53;;;-0.52;100.00
37778;BME280;23615;51.506;7.678;2023-01-26T06:04:24;100757.69;;;-0.63;100.00
37778;BME280;23615;51.506;7.678;2023-01-26T06:06:56;100749.53;;;-0.70;100.00
37778;BME280;23615;51.506;7.678;2023-01-26T06:09:22;100759.19;;;-0.70;100.00
37778;BME280;23615;51.506;7.678;2023-01-26T06:11:47;100757.03;;;-0.56;100.00
37778;BME280;23615;51.506;7.678;2023-01-26T06:14:13;100755.63;;;-0.60;100.00
37778;BME280;23615;51.506;7.678;2023-01-26T06:16:38;100757.16;;;-0.57;100.00
37778;BME280;23615;51.506;7.678;2023-01-26T06:19:04;100755.69;;;-0.41;100.00
37778;BME280;23615;51.506;7.678;2023-01-26T06:21:30;100757.91;;;-0.26;100.00
37778;BME280;23615;51.506;7.678;2023-01-26T06:23:55;100757.75;;;-0.34;100.00
37778;BME280;23615;51.506;7.678;2023-01-26T06:26:21;100761.75;;;-0.40;100.00
37778;BME280;23615;51.506;7.678;2023-01-26T06:28:48;100757.38;;;-0.11;100.00
37778;BME280;23615;51.506;7.678;2023-01-26T06:31:14;100753.78;;;-0.29;100.00
37778;BME280;23615;51.506;7.678;2023-01-26T06:33:39;100756.69;;;-0.22;100.00
37778;BME280;23615;51.506;7.678;2023-01-26T06:36:10;100755.16;;;-0.25;100.00
37778;BME280;23615;51.506;7.678;2023-01-26T06:38:36;100761.06;;;-0.32;100.00
37778;BME280;23615;51.506;7.678;2023-01-26T06:41:04;100765.19;;;-0.49;100.00
37778;BME280;23615;51.506;7.678;2023-01-26T06:43:30;100760.81;;;-0.29;100.00
37778;BME280;23615;51.506;7.678;2023-01-26T06:45:56;100773.09;;;-0.20;100.00
37778;BME280;23615;51.506;7.678;2023-01-26T06:48:24;100764.13;;;-0.37;100.00
37778;BME280;23615;51.506;7.678;2023-01-26T06:50:50;100761.91;;;-0.22;100.00
37778;BME280;23615;51.506;7.678;2023-01-26T06:53:25;100766.91;;;-0.19;100.00
37778;BME280;23615;51.506;7.678;2023-01-26T06:55:53;100776.44;;;0.01;100.00
37778;BME280;23615;51.506;7.678;2023-01-26T06:58:18;100771.59;;;-0.13;100.00
37778;BME280;23615;51.506;7.678;2023-01-26T07:00:43;100777.25;;;-0.08;100.00
37778;BME280;23615;51.506;7.678;2023-01-26T07:03:09;100772.53;;;-0.24;100.00
37778;BME280;23615;51.506;7.678;2023-01-26T07:05:35;100770.75;;;-0.23;100.00
37778;BME280;23615;51.506;7.678;2023-01-26T07:08:00;100767.97;;;-0.31;100.00
37778;BME280;23615;51.506;7.678;2023-01-26T07:10:28;100769.81;;;-0.03;100.00
37778;BME280;23615;51.506;7.678;2023-01-26T07:12:54;100752.16;;;-0.11;100.00
37778;BME280;23615;51.506;7.678;2023-01-26T07:15:19;100757.38;;;-0.11;100.00
37778;BME280;23615;51.506;7.678;2023-01-26T07:17:44;100765.78;;;-0.17;100.00
37778;BME280;23615;51.506;7.678;2023-01-26T07:20:10;100755.28;;;-0.17;100.00
37778;BME280;23615;51.506;7.678;2023-01-26T07:22:35;100757.91;;;-0.26;100.00
37778;BME280;23615;51.506;7.678;2023-01-26T07:25:01;100753.66;;;-0.27;100.00
37778;BME280;23615;51.506;7.678;2023-01-26T07:27:26;100756.69;;;-0.13;100.00
37778;BME280;23615;51.506;7.678;2023-01-26T07:29:51;100754.47;;;-0.08;100.00
37778;BME280;23615;51.506;7.678;2023-01-26T07:32:17;100748.81;;;-0.13;100.00
37778;BME280;23615;51.506;7.678;2023-01-26T07:34:42;100753.38;;;0.05;100.00
37778;BME280;23615;51.506;7.678;2023-01-26T07:37:07;100751.47;;;0.16;100.00
37778;BME280;23615;51.506;7.678;2023-01-26T07:39:32;100750.06;;;0.03;100.00
37778;BME280;23615;51.506;7.678;2023-01-26T07:41:58;100754.59;;;0.29;100.00
37778;BME280;23615;51.506;7.678;2023-01-26T07:44:24;100759.47;;;0.34;100.00
37778;BME280;23615;51.506;7.678;2023-01-26T07:46:49;100753.25;;;0.25;100.00
37778;BME280;23615;51.506;7.678;2023-01-26T07:49:14;100754.75;;;0.37;100.00
37778;BME280;23615;51.506;7.678;2023-01-26T07:51:40;100756.53;;;0.27;100.00
37778;BME280;23615;51.506;7.678;2023-01-26T07:54:06;100761.25;;;-0.05;100.00
37778;BME280;23615;51.506;7.678;2023-01-26T07:56:31;100762.22;;;0.23;100.00
37778;BME280;23615;51.506;7.678;2023-01-26T07:58:56;100765.66;;;0.04;100.00
37778;BME280;23615;51.506;7.678;2023-01-26T08:01:22;100761.53;;;0.21;100.00
37778;BME280;23615;51.506;7.678;2023-01-26T08:03:51;100765.94;;;0.20;100.00
37778;BME280;23615;51.506;7.678;2023-01-26T08:06:18;100765.94;;;0.11;100.00
37778;BME280;23615;51.506;7.678;2023-01-26T08:08:45;100766.50;;;-0.05;100.00
37778;BME280;23615;51.506;7.678;2023-01-26T08:11:11;100763.19;;;0.12;100.00
37778;BME280;23615;51.506;7.678;2023-01-26T08:13:37;100758.50;;;0.16;100.00
37778;BME280;23615;51.506;7.678;2023-01-26T08:16:07;100762.34;;;0.02;100.00
37778;BME280;23615;51.506;7.678;2023-01-26T08:18:39;100772.16;;;0.19;100.00
37778;BME280;23615;51.506;7.678;2023-01-26T08:21:05;100767.72;;;0.20;100.00
37778;BME280;23615;51.506;7.678;2023-01-26T08:23:30;100771.50;;;0.17;100.00
37778;BME280;23615;51.506;7.678;2023-01-26T08:26:03;100778.09;;;0.21;100.00
37778;BME280;23615;51.506;7.678;2023-01-26T08:28:29;100778.09;;;0.31;100.00
37778;BME280;23615;51.506;7.678;2023-01-26T08:30:54;100778.91;;;0.41;100.00
37778;BME280;23615;51.506;7.678;2023-01-26T08:33:20;100777.97;;;0.42;100.00
37778;BME280;23615;51.506;7.678;2023-01-26T08:35:45;100778.47;;;0.46;100.00
37778;BME280;23615;51.506;7.678;2023-01-26T08:38:11;100788.31;;;0.44;100.00
37778;BME280;23615;51.506;7.678;2023-01-26T08:40:36;100775.59;;;0.49;100.00
37778;BME280;23615;51.506;7.678;2023-01-26T08:43:02;100787.50;;;0.24;100.00
37778;BME280;23615;51.506;7.678;2023-01-26T08:45:28;100787.34;;;0.16;100.00
37778;BME280;23615;51.506;7.678;2023-01-26T08:47:53;100790.50;;;0.19;100.00
37778;BME280;23615;51.506;7.678;2023-01-26T08:50:18;100791.47;;;0.28;100.00
37778;BME280;23615;51.506;7.678;2023-01-26T08:52:44;100793.16;;;0.29;100.00
37778;BME280;23615;51.506;7.678;2023-01-26T08:55:09;100794.09;;;0.37;100.00
37778;BME280;23615;51.506;7.678;2023-01-26T08:57:34;100793.28;;;0.47;100.00
37778;BME280;23615;51.506;7.678;2023-01-26T09:00:00;100792.03;;;0.31;100.00
37778;BME280;23615;51.506;7.678;2023-01-26T09:02:25;100794.53;;;0.04;100.00
37778;BME280;23615;51.506;7.678;2023-01-26T09:04:51;100791.78;;;0.34;100.00
37778;BME280;23615;51.506;7.678;2023-01-26T09:07:16;100793.31;;;0.18;100.00
37778;BME280;23615;51.506;7.678;2023-01-26T09:09:41;100798.81;;;0.15;100.00
37778;BME280;23615;51.506;7.678;2023-01-26T09:12:07;100802.81;;;0.19;100.00
37778;BME280;23615;51.506;7.678;2023-01-26T09:14:32;100806.56;;;0.16;100.00
37778;BME280;23615;51.506;7.678;2023-01-26T09:16:57;100800.47;;;0.06;100.00
37778;BME280;23615;51.506;7.678;2023-01-26T09:19:23;100798.25;;;0.40;100.00
37778;BME280;23615;51.506;7.678;2023-01-26T09:21:54;100793.28;;;0.37;100.00
37778;BME280;23615;51.506;7.678;2023-01-26T09:24:20;100793.44;;;0.45;100.00
37778;BME280;23615;51.506;7.678;2023-01-26T09:26:46;100797.03;;;0.34;100.00
37778;BME280;23615;51.506;7.678;2023-01-26T09:29:12;100797.16;;;0.43;100.00
37778;BME280;23615;51.506;7.678;2023-01-26T09:31:37;100802.97;;;0.27;100.00
37778;BME280;23615;51.506;7.678;2023-01-26T09:34:03;100797.44;;;0.40;100.00
37778;BME280;23615;51.506;7.678;2023-01-26T09:36:28;100796.19;;;0.24;100.00
37778;BME280;23615;51.506;7.678;2023-01-26T09:38:53;100803.50;;;0.30;100.00
37778;BME280;23615;51.506;7.678;2023-01-26T09:44:23;100803.50;;;0.59;100.00
37778;BME280;23615;51.506;7.678;2023-01-26T09:47:04;100810.53;;;0.59;100.00
37778;BME280;23615;51.506;7.678;2023-01-26T09:52:38;100804.91;;;0.25;100.00
37778;BME280;23615;51.506;7.678;2023-01-26T09:55:14;100799.78;;;0.62;100.00
37778;BME280;23615;51.506;7.678;2023-01-26T09:57:47;100797.16;;;0.62;100.00
37778;BME280;23615;51.506;7.678;2023-01-26T10:00:31;100803.78;;;0.37;100.00
37778;BME280;23615;51.506;7.678;2023-01-26T10:03:07;100798.69;;;0.35;100.00
37778;BME280;23615;51.506;7.678;2023-01-26T10:06:06;100804.19;;;0.52;100.00
37778;BME280;23615;51.506;7.678;2023-01-26T10:08:37;100790.94;;;0.44;100.00
37778;BME280;23615;51.506;7.678;2023-01-26T10:11:13;100791.91;;;0.62;100.00
37778;BME280;23615;51.506;7.678;2023-01-26T10:13:46;100788.56;;;0.60;100.00
37778;BME280;23615;51.506;7.678;2023-01-26T10:16:13;100792.28;;;0.67;100.00
37778;BME280;23615;51.506;7.678;2023-01-26T10:18:50;100781.28;;;0.44;100.00
37778;BME280;23615;51.506;7.678;2023-01-26T10:21:20;100783.06;;;0.24;100.00
37778;BME280;23615;51.506;7.678;2023-01-26T10:23:47;100779.16;;;0.57;100.00
37778;BME280;23615;51.506;7.678;2023-01-26T10:26:15;100789.38;;;0.70;100.00
37778;BME280;23615;51.506;7.678;2023-01-26T10:28:43;100790.09;;;0.72;100.00
37778;BME280;23615;51.506;7.678;2023-01-26T10:31:17;100782.22;;;0.62;100.00
37778;BME280;23615;51.506;7.678;2023-01-26T10:33:55;100786.34;;;0.65;100.00
37778;BME280;23615;51.506;7.678;2023-01-26T10:36:21;100778.63;;;0.63;100.00
37778;BME280;23615;51.506;7.678;2023-01-26T10:38:47;100776.50;;;0.77;100.00
37778;BME280;23615;51.506;7.678;2023-01-26T10:43:58;100776.50;;;0.77;100.00
37778;BME280;23615;51.506;7.678;2023-01-26T10:46:34;100776.66;;;0.65;100.00
37778;BME280;23615;51.506;7.678;2023-01-26T10:49:14;100779.25;;;0.85;100.00
37778;BME280;23615;51.506;7.678;2023-01-26T10:51:45;100775.06;;;0.92;100.00
37778;BME280;23615;51.506;7.678;2023-01-26T10:56:43;100776.66;;;0.75;100.00
37778;BME280;23615;51.506;7.678;2023-01-26T10:59:09;100761.31;;;0.80;100.00
37778;BME280;23615;51.506;7.678;2023-01-26T11:01:51;100774.97;;;0.84;100.00
37778;BME280;23615;51.506;7.678;2023-01-26T11:04:17;100773.25;;;1.02;100.00
37778;BME280;23615;51.506;7.678;2023-01-26T11:06:43;100762.94;;;0.91;100.00
37778;BME280;23615;51.506;7.678;2023-01-26T11:09:24;100764.94;;;0.69;100.00
37778;BME280;23615;51.506;7.678;2023-01-26T11:12:01;100762.03;;;0.63;100.00
37778;BME280;23615;51.506;7.678;2023-01-26T11:14:29;100763.56;;;0.56;100.00
37778;BME280;23615;51.506;7.678;2023-01-26T11:17:42;100761.47;;;0.69;100.00
37778;BME280;23615;51.506;7.678;2023-01-26T11:19:50;100760.38;;;0.62;100.00
37778;BME280;23615;51.506;7.678;2023-01-26T11:22:27;100762.81;;;0.73;100.00
37778;BME280;23615;51.506;7.678;2023-01-26T11:24:59;100760.50;;;0.70;100.00
37778;BME280;23615;51.506;7.678;2023-01-26T11:27:45;100755.91;;;0.82;100.00
37778;BME280;23615;51.506;7.678;2023-01-26T11:30:47;100747.63;;;0.77;100.00
37778;BME280;23615;51.506;7.678;2023-01-26T11:33:23;100747.66;;;0.67;100.00
37778;BME280;23615;51.506;7.678;2023-01-26T11:36:13;100756.78;;;0.63;100.00
37778;BME280;23615;51.506;7.678;2023-01-26T11:39:01;100751.78;;;0.69;100.00
37778;BME280;23615;51.506;7.678;2023-01-26T11:41:46;100746.22;;;0.82;100.00
37778;BME280;23615;51.506;7.678;2023-01-26T11:44:23;100741.81;;;0.73;100.00
37778;BME280;23615;51.506;7.678;2023-01-26T11:57:36;100735.81;;;1.00;100.00
37778;BME280;23615;51.506;7.678;2023-01-26T12:02:37;100741.22;;;0.98;100.00
37778;BME280;23615;51.506;7.678;2023-01-26T12:07:59;100728.97;;;0.80;100.00
37778;BME280;23615;51.506;7.678;2023-01-26T12:10:32;100729.91;;;0.88;100.00
37778;BME280;23615;51.506;7.678;2023-01-26T12:13:17;100730.16;;;0.95;100.00
37778;BME280;23615;51.506;7.678;2023-01-26T12:15:58;100727.25;;;0.98;100.00
37778;BME280;23615;51.506;7.678;2023-01-26T12:18:31;100726.31;;;0.89;100.00
37778;BME280;23615;51.506;7.678;2023-01-26T12:21:04;100719.59;;;1.04;100.00
37778;BME280;23615;51.506;7.678;2023-01-26T12:23:43;100717.75;;;1.15;100.00
37778;BME280;23615;51.506;7.678;2023-01-26T12:26:17;100726.81;;;0.93;100.00
37778;BME280;23615;51.506;7.678;2023-01-26T12:29:00;100718.72;;;0.86;100.00
37778;BME280;23615;51.506;7.678;2023-01-26T12:32:00;100716.66;;;0.80;100.00
37778;BME280;23615;51.506;7.678;2023-01-26T12:34:30;100704.13;;;0.64;100.00
37778;BME280;23615;51.506;7.678;2023-01-26T12:45:34;100686.19;;;0.97;100.00
37778;BME280;23615;51.506;7.678;2023-01-26T12:48:23;100682.44;;;0.99;100.00
37778;BME280;23615;51.506;7.678;2023-01-26T12:51:07;100684.03;;;1.10;100.00
37778;BME280;23615;51.506;7.678;2023-01-26T12:53:41;100680.66;;;1.00;100.00
37778;BME280;23615;51.506;7.678;2023-01-26T12:56:25;100680.75;;;1.08;100.00
37778;BME280;23615;51.506;7.678;2023-01-26T12:58:52;100679.78;;;1.09;100.00
37778;BME280;23615;51.506;7.678;2023-01-26T13:01:22;100676.19;;;1.00;100.00
37778;BME280;23615;51.506;7.678;2023-01-26T13:03:53;100685.81;;;1.09;100.00
37778;BME280;23615;51.506;7.678;2023-01-26T13:06:24;100675.38;;;1.00;100.00
37778;BME280;23615;51.506;7.678;2023-01-26T13:11:43;100665.69;;;1.00;100.00
37778;BME280;23615;51.506;7.678;2023-01-26T13:16:49;100675.94;;;1.21;100.00
37778;BME280;23615;51.506;7.678;2023-01-26T13:19:35;100671.97;;;1.17;100.00
37778;BME280;23615;51.506;7.678;2023-01-26T13:22:01;100677.84;;;1.29;100.00
37778;BME280;23615;51.506;7.678;2023-01-26T13:26:54;100678.94;;;1.08;100.00
37778;BME280;23615;51.506;7.678;2023-01-26T13:31:52;100674.56;;;0.99;100.00
37778;BME280;23615;51.506;7.678;2023-01-26T13:34:24;100673.28;;;1.03;100.00
37778;BME280;23615;51.506;7.678;2023-01-26T13:36:51;100674.66;;;1.07;100.00
37778;BME280;23615;51.506;7.678;2023-01-26T13:39:33;100670.94;;;1.00;100.00
37778;BME280;23615;51.506;7.678;2023-01-26T13:41:58;100673.81;;;1.07;100.00
37778;BME280;23615;51.506;7.678;2023-01-26T13:44:36;100671.25;;;0.97;100.00
37778;BME280;23615;51.506;7.678;2023-01-26T13:47:10;100676.97;;;1.10;100.00